Umar1 — 9HA2498 — position and weather

sailwx.info

Track history (hours):
 
Tides and Currents Weather Stations Pressure Air Temp Water Temp Dewpoint Dewpoint Depression Visibility Wind Speed Wind Dir Waves Ship Positions

Umar1

Last reported at 2015-Mar-26 22:29 UTC. Time now 2015-Mar-29 16:06 UTC.
Position N 36°27' E 014°36'.

Length 100 m; draft 5.7 m.

Type: Tanker. MMSI: 248751000.

Date/timePositionNaut miles runAvg speedWind from/ knotsBaromVisibWave heightAir tempDewpointWater temp
2015-Mar-26 22:29N 36°27' E 014°36'8 8.8
2015-Mar-26 21:33N 36°31' E 014°27'9 8.9
2015-Mar-26 20:33N 36°35' E 014°18'9 9.0
2015-Mar-26 19:33N 36°40' E 014°08'9 9.3
2015-Mar-26 18:33N 36°45' E 013°59'10 9.5
2015-Mar-26 17:33N 36°49' E 013°48'9 9.3
2015-Mar-26 16:33N 36°54' E 013°38'11 8.8
2015-Mar-26 15:15N 36°60' E 013°26'236 7.7
2015-Mar-25 08:28N 38°37' E 008°54'8 8.2
2015-Mar-25 07:33N 38°40' E 008°45'9 8.6
2015-Mar-25 06:32N 38°43' E 008°34'8 8.6
2015-Mar-25 05:32N 38°47' E 008°25'17 8.5
2015-Mar-25 03:33N 38°56' E 008°07'280 8.4
2015-Mar-23 18:04N 43°02' E 005°08'5 9.1
2015-Mar-23 17:28N 43°06' E 005°05'9 9.3
2015-Mar-23 16:33N 43°14' E 005°00'9 8.6
2015-Mar-23 15:34N 43°23' E 004°58'7 6.7
2015-Mar-23 14:34N 43°26' E 005°07'2 0.1
2015-Mar-22 16:30N 43°27' E 005°09'4 4.4
2015-Mar-22 15:33N 43°24' E 005°05'5 5.2
2015-Mar-22 14:33N 43°23' E 004°58'0 0.1
2015-Mar-22 13:32N 43°23' E 004°58'0 0.0
2015-Mar-22 12:32N 43°23' E 004°58'0 0.0
2015-Mar-22 11:32N 43°23' E 004°58'0 0.0
2015-Mar-22 10:32N 43°23' E 004°58'0 0.0
2015-Mar-22 09:32N 43°23' E 004°58'1 0.6
2015-Mar-22 08:33N 43°23' E 004°58'7 6.9
2015-Mar-22 07:33N 43°16' E 005°01'52 7.4
2015-Mar-22 00:33N 42°25' E 004°47'9 7.1
2015-Mar-21 23:14N 42°18' E 004°38'14 7.1
2015-Mar-21 21:14N 42°08' E 004°24'5 7.0
2015-Mar-21 20:28N 42°04' E 004°19'10 7.2
2015-Mar-21 19:05N 41°58' E 004°09'4 7.7
2015-Mar-21 18:30N 41°55' E 004°05'16 7.4
2015-Mar-21 16:19N 41°44' E 003°49'7 7.3
2015-Mar-21 15:21N 41°38' E 003°42'5 6.4
2015-Mar-21 14:32N 41°36' E 003°36'6 5.9
2015-Mar-21 13:29N 41°34' E 003°28'6 6.0
2015-Mar-21 12:28N 41°32' E 003°21'8 7.0
2015-Mar-21 11:24N 41°26' E 003°14'6 6.5
2015-Mar-21 10:32N 41°21' E 003°10'8 6.6
2015-Mar-21 09:22N 41°15' E 003°04'6 6.0
2015-Mar-21 08:22N 41°11' E 002°59'5 6.5
2015-Mar-21 07:33N 41°06' E 002°54'7 6.6
2015-Mar-21 06:34N 41°01' E 002°49'6 6.1
2015-Mar-21 05:33N 40°56' E 002°44'6 6.3
2015-Mar-21 04:33N 40°51' E 002°39'6 6.3
2015-Mar-21 03:33N 40°46' E 002°34'7 6.5
2015-Mar-21 02:33N 40°41' E 002°28'6 6.3
2015-Mar-21 01:33N 40°36' E 002°23'6 5.8
2015-Mar-21 00:33N 40°32' E 002°19'6 6.3
2015-Mar-20 23:33N 40°27' E 002°14'7 6.6
2015-Mar-20 22:33N 40°22' E 002°08'6 5.8
2015-Mar-20 21:33N 40°17' E 002°04'6 6.2
2015-Mar-20 20:33N 40°12' E 001°59'6 5.9
2015-Mar-20 19:33N 40°07' E 001°54'4 4.5
2015-Mar-20 18:33N 40°04' E 001°50'4 4.1
2015-Mar-20 17:34N 40°01' E 001°47'4 4.5
2015-Mar-20 16:33N 39°57' E 001°44'5 4.6
2015-Mar-20 15:33N 39°54' E 001°40'5 4.7
2015-Mar-20 14:33N 39°50' E 001°36'5 4.7
2015-Mar-20 13:33N 39°46' E 001°32'5 4.9
2015-Mar-20 12:33N 39°42' E 001°28'127 5.8
2015-Mar-19 14:30N 38°00' W 000°09'7 6.1
2015-Mar-19 13:24N 37°54' W 000°13'5 6.2
2015-Mar-19 12:33N 37°50' W 000°16'5 4.9
2015-Mar-19 11:33N 37°46' W 000°20'6 6.0
2015-Mar-19 10:33N 37°41' W 000°24'6 6.1
2015-Mar-19 09:33N 37°36' W 000°29'6 5.8
2015-Mar-19 08:33N 37°32' W 000°33'5 5.3
2015-Mar-19 07:32N 37°28' W 000°38'5 4.9
2015-Mar-19 06:33N 37°25' W 000°43'5 5.3
2015-Mar-19 05:33N 37°21' W 000°48'5 5.4
2015-Mar-19 04:33N 37°18' W 000°53'6 5.8
2015-Mar-19 03:33N 37°14' W 000°58'6 5.9
2015-Mar-19 02:33N 37°10' W 001°04'  
Track history (hours):
 
Tides and Currents Weather Stations Pressure Air Temp Water Temp Dewpoint Dewpoint Depression Visibility Wind Speed Wind Dir Waves Ship Positions

Umar1

Last reported at 2015-Mar-26 22:29 UTC. Time now 2015-Mar-29 16:06 UTC.
Position N 36°27' E 014°36'.

Length 100 m; draft 5.7 m.

Type: Tanker. MMSI: 248751000.

Date/timePositionNaut miles runAvg speedWind from/ knotsBaromVisibWave heightAir tempDewpointWater temp
2015-Mar-26 22:29N 36°27' E 014°36'8 8.8
2015-Mar-26 21:33N 36°31' E 014°27'9 8.9
2015-Mar-26 20:33N 36°35' E 014°18'9 9.0
2015-Mar-26 19:33N 36°40' E 014°08'9 9.3
2015-Mar-26 18:33N 36°45' E 013°59'10 9.5
2015-Mar-26 17:33N 36°49' E 013°48'9 9.3
2015-Mar-26 16:33N 36°54' E 013°38'11 8.8
2015-Mar-26 15:15N 36°60' E 013°26'236 7.7
2015-Mar-25 08:28N 38°37' E 008°54'8 8.2
2015-Mar-25 07:33N 38°40' E 008°45'9 8.6
2015-Mar-25 06:32N 38°43' E 008°34'8 8.6
2015-Mar-25 05:32N 38°47' E 008°25'17 8.5
2015-Mar-25 03:33N 38°56' E 008°07'280 8.4
2015-Mar-23 18:04N 43°02' E 005°08'5 9.1
2015-Mar-23 17:28N 43°06' E 005°05'9 9.3
2015-Mar-23 16:33N 43°14' E 005°00'9 8.6
2015-Mar-23 15:34N 43°23' E 004°58'7 6.7
2015-Mar-23 14:34N 43°26' E 005°07'2 0.1
2015-Mar-22 16:30N 43°27' E 005°09'4 4.4
2015-Mar-22 15:33N 43°24' E 005°05'5 5.2
2015-Mar-22 14:33N 43°23' E 004°58'0 0.1
2015-Mar-22 13:32N 43°23' E 004°58'0 0.0
2015-Mar-22 12:32N 43°23' E 004°58'0 0.0
2015-Mar-22 11:32N 43°23' E 004°58'0 0.0
2015-Mar-22 10:32N 43°23' E 004°58'0 0.0
2015-Mar-22 09:32N 43°23' E 004°58'1 0.6
2015-Mar-22 08:33N 43°23' E 004°58'7 6.9
2015-Mar-22 07:33N 43°16' E 005°01'52 7.4
2015-Mar-22 00:33N 42°25' E 004°47'9 7.1
2015-Mar-21 23:14N 42°18' E 004°38'14 7.1
2015-Mar-21 21:14N 42°08' E 004°24'5 7.0
2015-Mar-21 20:28N 42°04' E 004°19'10 7.2
2015-Mar-21 19:05N 41°58' E 004°09'4 7.7
2015-Mar-21 18:30N 41°55' E 004°05'16 7.4
2015-Mar-21 16:19N 41°44' E 003°49'7 7.3
2015-Mar-21 15:21N 41°38' E 003°42'5 6.4
2015-Mar-21 14:32N 41°36' E 003°36'6 5.9
2015-Mar-21 13:29N 41°34' E 003°28'6 6.0
2015-Mar-21 12:28N 41°32' E 003°21'8 7.0
2015-Mar-21 11:24N 41°26' E 003°14'6 6.5
2015-Mar-21 10:32N 41°21' E 003°10'8 6.6
2015-Mar-21 09:22N 41°15' E 003°04'6 6.0
2015-Mar-21 08:22N 41°11' E 002°59'5 6.5
2015-Mar-21 07:33N 41°06' E 002°54'7 6.6
2015-Mar-21 06:34N 41°01' E 002°49'6 6.1
2015-Mar-21 05:33N 40°56' E 002°44'6 6.3
2015-Mar-21 04:33N 40°51' E 002°39'6 6.3
2015-Mar-21 03:33N 40°46' E 002°34'7 6.5
2015-Mar-21 02:33N 40°41' E 002°28'6 6.3
2015-Mar-21 01:33N 40°36' E 002°23'6 5.8
2015-Mar-21 00:33N 40°32' E 002°19'6 6.3
2015-Mar-20 23:33N 40°27' E 002°14'7 6.6
2015-Mar-20 22:33N 40°22' E 002°08'6 5.8
2015-Mar-20 21:33N 40°17' E 002°04'6 6.2
2015-Mar-20 20:33N 40°12' E 001°59'6 5.9
2015-Mar-20 19:33N 40°07' E 001°54'4 4.5
2015-Mar-20 18:33N 40°04' E 001°50'4 4.1
2015-Mar-20 17:34N 40°01' E 001°47'4 4.5
2015-Mar-20 16:33N 39°57' E 001°44'5 4.6
2015-Mar-20 15:33N 39°54' E 001°40'5 4.7
2015-Mar-20 14:33N 39°50' E 001°36'5 4.7
2015-Mar-20 13:33N 39°46' E 001°32'5 4.9
2015-Mar-20 12:33N 39°42' E 001°28'127 5.8
2015-Mar-19 14:30N 38°00' W 000°09'7 6.1
2015-Mar-19 13:24N 37°54' W 000°13'5 6.2
2015-Mar-19 12:33N 37°50' W 000°16'5 4.9
2015-Mar-19 11:33N 37°46' W 000°20'6 6.0
2015-Mar-19 10:33N 37°41' W 000°24'6 6.1
2015-Mar-19 09:33N 37°36' W 000°29'6 5.8
2015-Mar-19 08:33N 37°32' W 000°33'5 5.3
2015-Mar-19 07:32N 37°28' W 000°38'5 4.9
2015-Mar-19 06:33N 37°25' W 000°43'5 5.3
2015-Mar-19 05:33N 37°21' W 000°48'5 5.4
2015-Mar-19 04:33N 37°18' W 000°53'6 5.8
2015-Mar-19 03:33N 37°14' W 000°58'6 5.9
2015-Mar-19 02:33N 37°10' W 001°04'  

Dump ship's entire track history